Lukeville, Arizona
Current Conditions -  °F | °C
As of 4:56 PM on Sunday 21 Dec 2014 (Local Time) from KGXF Reporting Station
Clear Clear  
Wind Chill: 62°   Ceiling: Unl
Heat Index: 62°   Visibility: 10mi
Dew Point: 39°   Wind: 1mph
Humidity: 43%   Direction: 290°WNW
Pressure: 30.06"   Gusts: NA
Location:  31.88°N, 112.82°W
Report Text: KGXF 212356Z AUTO 29001KT 10SM CLR 17/04 A3006 RMK AO2 SLP176 T01650039 10178 20140 55003
Loading
Personal Weather Stations






























Interactive Weather Map New forecast layout! Learn more

10-Day Weather Forecast

Advertisements
Track Severe Weather on mobile